Welcome to Northern Hawkes Bay. New Zealand.
PWS Header
      nz Flag



Hit Counter


W3C Valid W3C Valid logo


    Wairoa

Select any of the Stations below to visit their websites.










Historic Data from Weather Underground
Select the location of interest below. Wairoa is the default. Please have patience, this Data is slow to load in.
Northern Hawkes Bay Historical Data
Daily Summary for February 8, 2017 Units:  English    Metric   Both
« Previous Day
Next Day »
Daily Weekly Monthly Yearly Custom
  High: Low: Average:
Temperature: 63.3 °F 57.7 °F 60.8 °F
Dew Point: 62.4 °F 48.9 °F 58.3 °F
Humidity: 99% 65% 92%
Wind Speed: 18.3mph 0mph 6.8mph
Wind Gust: 27.3mph - -
Wind- - South
Pressure: 30.3 in 30 in -
Precipitation: 1.9 in    
Historical Graphs
 
 
Tabular Data for February 8, 2017
Time Temperature Dew Point Pressure Wind Wind Speed Wind Gust Humidity Rainfall Rate (Hourly) solar
00:03 61.5 °F 61 °F 30.1 in WSW 4.5 mph 10.7 mph 98% 0.06 in 0 W/m2
00:08 61.3 °F 60.8 °F 30.1 in WSW 6.9 mph 9.8 mph 98% 0.05 in 0 W/m2
00:13 61.3 °F 60.8 °F 30.1 in WSW 4.5 mph 9.8 mph 98% 0.05 in 0 W/m2
00:18 61.3 °F 60.8 °F 30.1 in WSW 6.9 mph 9.8 mph 98% 0.04 in 0 W/m2
00:23 61.3 °F 60.8 °F 30.1 in WSW 5.4 mph 11.4 mph 98% 0.04 in 0 W/m2
00:28 61.3 °F 60.8 °F 30.1 in SW 5.4 mph 12.1 mph 98% 0.02 in 0 W/m2
00:33 61.3 °F 60.8 °F 30.1 in WSW 7.6 mph 12.1 mph 98% 0.02 in 0 W/m2
00:39 61.2 °F 60.6 °F 30.1 in WSW 4.5 mph 12.1 mph 98% 0.02 in 0 W/m2
00:44 61.2 °F 60.6 °F 30.1 in WSW 4.5 mph 13.6 mph 98% 0.02 in 0 W/m2
00:49 61.2 °F 60.6 °F 30.1 in WSW 3.8 mph 13.6 mph 98% 0.02 in 0 W/m2
00:54 61 °F 60.4 °F 30.1 in WSW 4.5 mph 11.4 mph 98% 0.02 in 0 W/m2
00:59 61 °F 60.4 °F 30.1 in West 6 mph 11.4 mph 98% 0.02 in 0 W/m2
01:04 61 °F 60.4 °F 30.1 in West 3.8 mph 11.4 mph 98% 0.02 in 0 W/m2
01:09 60.8 °F 60.3 °F 30.1 in West 3.8 mph 8.3 mph 98% 0.02 in 0 W/m2
01:14 60.8 °F 60.3 °F 30.1 in WSW 3.8 mph 8.3 mph 98% 0.01 in 0 W/m2
01:19 60.8 °F 60.3 °F 30.1 in West 0.7 mph 7.6 mph 98% 0.01 in 0 W/m2
01:24 60.8 °F 60.3 °F 30.1 in West 0.7 mph 6.9 mph 98% 0.01 in 0 W/m2
01:29 60.8 °F 60.3 °F 30.1 in West 2.2 mph 4.5 mph 98% 0.01 in 0 W/m2
01:34 60.8 °F 60.3 °F 30.1 in West 1.6 mph 4.5 mph 98% 0.01 in 0 W/m2
01:39 61 °F 60.4 °F 30.1 in WNW 2.2 mph 4.5 mph 98% 0.02 in 0 W/m2
01:44 60.8 °F 60.3 °F 30.1 in NW 0.7 mph 3.8 mph 98% 0.02 in 0 W/m2
01:49 61 °F 60.4 °F 30.1 in NNW 0.7 mph 3.8 mph 98% 0.02 in 0 W/m2
01:54 61 °F 60.4 °F 30.1 in NNW 1.6 mph 3.8 mph 98% 0.02 in 0 W/m2
01:59 61 °F 60.4 °F 30.1 in NNW 2.2 mph 3.8 mph 98% 0.02 in 0 W/m2
02:04 61 °F 60.4 °F 30.1 in NNW 1.6 mph 3.8 mph 98% 0.04 in 0 W/m2
02:09 61 °F 60.4 °F 30 in North 1.6 mph 3.8 mph 98% 0.04 in 0 W/m2
02:14 61 °F 60.4 °F 30 in North 2.2 mph 4.5 mph 98% 0.04 in 0 W/m2
02:19 61 °F 60.4 °F 30 in North 3.1 mph 5.4 mph 98% 0.05 in 0 W/m2
02:24 61 °F 60.4 °F 30 in North 3.8 mph 5.4 mph 98% 0.05 in 0 W/m2
02:29 60.8 °F 60.3 °F 30 in NNE 2.2 mph 6.9 mph 98% 0.05 in 0 W/m2
02:34 61 °F 60.4 °F 30 in NNE 3.8 mph 6.9 mph 98% 0.05 in 0 W/m2
02:39 60.8 °F 60.3 °F 30 in NNE 2.2 mph 4.5 mph 98% 0.04 in 0 W/m2
02:55 61 °F 60.4 °F 30 in North 3.1 mph 6 mph 98% 0.02 in 0 W/m2
03:00 61 °F 60.4 °F 30 in North 4.5 mph 6 mph 98% 0.01 in 0 W/m2
03:05 61 °F 60.4 °F 30 in North 2.2 mph 6 mph 98% 0.01 in 0 W/m2
03:25 61.2 °F 60.6 °F 30 in North 2.2 mph 5.4 mph 98% 0 in 0 W/m2
03:30 61.2 °F 60.6 °F 30 in NNW 2.2 mph 5.4 mph 98% 0 in 0 W/m2
03:35 61.2 °F 60.6 °F 30 in NNW 3.1 mph 4.5 mph 98% 0 in 0 W/m2
03:40 61.2 °F 60.6 °F 30 in NNW 1.6 mph 4.5 mph 98% 0 in 0 W/m2
03:45 61.3 °F 60.8 °F 30 in NW 0.7 mph 3.8 mph 98% 0.01 in 0 W/m2
03:50 61.3 °F 60.8 °F 30 in Calm   3.1 mph 98% 0.02 in 0 W/m2
03:55 61.3 °F 60.8 °F 30 in Calm   3.1 mph 98% 0.02 in 0 W/m2
04:00 61.3 °F 60.8 °F 30 in West 1.6 mph 2.2 mph 98% 0.05 in 0 W/m2
04:05 61.3 °F 60.8 °F 30 in Calm   2.2 mph 98% 0.07 in 0 W/m2
04:10 61.3 °F 60.8 °F 30 in NNW 0.7 mph 2.2 mph 98% 0.08 in 0 W/m2
04:15 61.3 °F 60.8 °F 30 in Calm   3.1 mph 98% 0.09 in 0 W/m2
04:20 61.3 °F 60.8 °F 30 in Calm   3.1 mph 98% 0.12 in 0 W/m2
04:25 61.3 °F 60.8 °F 30 in Calm   1.6 mph 98% 0.12 in 0 W/m2
04:30 61.3 °F 60.8 °F 30 in Calm   0.7 mph 98% 0.14 in 0 W/m2
04:35 61.2 °F 60.6 °F 30 in Calm   0.7 mph 98% 0.17 in 0 W/m2
04:40 61.3 °F 60.8 °F 30.1 in West 0.7 mph 2.2 mph 98% 0.17 in 0 W/m2
04:45 61.3 °F 60.8 °F 30 in West 2.2 mph 3.8 mph 98% 0.15 in 0 W/m2
04:50 61.5 °F 61 °F 30 in WSW 0.7 mph 3.8 mph 98% 0.14 in 0 W/m2
04:55 61.7 °F 61.2 °F 30 in WSW 3.1 mph 6.9 mph 98% 0.14 in 0 W/m2
05:00 61.7 °F 61.2 °F 30 in SW 3.8 mph 7.6 mph 98% 0.12 in 0 W/m2
05:05 61.7 °F 61.2 °F 30 in Calm   7.6 mph 98% 0.11 in 0 W/m2
05:10 61.9 °F 61.3 °F 30 in SW 6 mph 7.6 mph 98% 0.11 in 0 W/m2
05:15 61.7 °F 61.2 °F 30 in SW 5.4 mph 11.4 mph 98% 0.09 in 0 W/m2
05:20 61.7 °F 61.2 °F 30 in SSW 6.9 mph 13 mph 98% 0.08 in 0 W/m2
05:25 61.7 °F 61.2 °F 30 in SW 5.4 mph 13 mph 98% 0.08 in 0 W/m2
05:30 61.5 °F 61 °F 30 in SW 6.9 mph 12.1 mph 98% 0.05 in 0 W/m2
05:35 61.7 °F 61.2 °F 30 in SW 7.6 mph 12.1 mph 98% 0.04 in 0 W/m2
05:40 61.7 °F 61.2 °F 30 in SSW 6 mph 10.7 mph 98% 0.04 in 0 W/m2
05:56 61.9 °F 61.3 °F 30.1 in SW 5.4 mph 13.6 mph 98% 0.04 in 0 W/m2
06:01 61.9 °F 61.3 °F 30.1 in SW 4.5 mph 11.4 mph 98% 0.04 in 0 W/m2
06:06 61.7 °F 61.2 °F 30.1 in WSW 7.6 mph 9.8 mph 98% 0.01 in 0 W/m2
06:11 61.9 °F 61.3 °F 30.1 in SW 4.5 mph 11.4 mph 98% 0.02 in 0 W/m2
06:15 62.1 °F 61.5 °F 30 in SW 7.6 mph 13 mph 98% 0.02 in 0 W/m2
06:21 62.1 °F 61.5 °F 30 in SW 9.2 mph 13 mph 98% 0.01 in 0 W/m2
06:25 62.1 °F 61.5 °F 30.1 in SW 5.4 mph 13 mph 98% 0.02 in 0 W/m2
06:30 62.1 °F 61.5 °F 30.1 in WSW 3.8 mph 11.4 mph 98% 0.04 in 0 W/m2
06:35 62.2 °F 61.7 °F 30.1 in West 5.4 mph 12.1 mph 98% 0.04 in 0 W/m2
06:41 62.2 °F 61.7 °F 30.1 in West 6 mph 13.6 mph 98% 0.06 in 0 W/m2
06:45 62.4 °F 61.9 °F 30.1 in WSW 7.6 mph 13.6 mph 98% 0.07 in 2 W/m2
06:51 62.8 °F 61.9 °F 30.1 in SW 6.9 mph 12.1 mph 97% 0.09 in 3 W/m2
06:55 63 °F 62.1 °F 30.1 in WSW 7.6 mph 12.1 mph 97% 0.11 in 2 W/m2
07:01 62.8 °F 61.9 °F 30.1 in WSW 8.3 mph 12.1 mph 97% 0.12 in 3 W/m2
07:05 63 °F 62.1 °F 30.1 in WSW 6 mph 13.6 mph 97% 0.13 in 6 W/m2
07:11 63.1 °F 62.2 °F 30.1 in SW 6 mph 13.6 mph 97% 0.12 in 4 W/m2
07:15 63 °F 62.1 °F 30.1 in South 6 mph 10.7 mph 97% 0.13 in 13 W/m2
07:21 63 °F 62.1 °F 30.1 in South 9.2 mph 13 mph 97% 0.14 in 22 W/m2
07:25 63 °F 62.1 °F 30.1 in SSW 4.5 mph 13 mph 97% 0.13 in 13 W/m2
07:31 63 °F 62.1 °F 30.1 in SW 7.6 mph 13 mph 97% 0.13 in 11 W/m2
07:35 63 °F 62.1 °F 30.1 in SW 7.6 mph 13 mph 97% 0.14 in 21 W/m2
07:41 63.1 °F 62.2 °F 30.1 in SSW 5.4 mph 13 mph 97% 0.12 in 15 W/m2
07:45 63 °F 62.1 °F 30.1 in SSW 8.3 mph 11.4 mph 97% 0.11 in 12 W/m2
07:51 63 °F 62.1 °F 30.1 in SSW 6.9 mph 11.4 mph 97% 0.12 in 14 W/m2
07:55 63 °F 62.1 °F 30.1 in SSW 6.9 mph 13 mph 97% 0.12 in 21 W/m2
08:00 63 °F 62.1 °F 30.1 in SW 8.3 mph 13 mph 97% 0.12 in 31 W/m2
08:05 62.8 °F 61.9 °F 30.1 in SW 5.4 mph 13 mph 97% 0.12 in 29 W/m2
08:10 63.1 °F 62.2 °F 30.1 in SW 9.2 mph 12.1 mph 97% 0.12 in 21 W/m2
08:16 63.1 °F 62.2 °F 30.1 in SW 7.6 mph 12.1 mph 97% 0.11 in 25 W/m2
08:20 63.1 °F 62.2 °F 30.1 in SW 5.4 mph 12.1 mph 97% 0.11 in 23 W/m2
08:25 63.3 °F 62.4 °F 30.1 in SW 3.8 mph 11.4 mph 97% 0.12 in 21 W/m2
08:30 62.8 °F 61.9 °F 30.1 in South 3.1 mph 9.2 mph 97% 0.11 in 29 W/m2
08:35 62.8 °F 61.9 °F 30.1 in South 3.8 mph 9.2 mph 97% 0.11 in 32 W/m2
08:41 62.8 °F 61.9 °F 30.1 in South 3.1 mph 7.6 mph 97% 0.11 in 28 W/m2
08:45 63 °F 62.1 °F 30.1 in South 4.5 mph 7.6 mph 97% 0.08 in 20 W/m2
08:50 63.1 °F 62.2 °F 30.1 in South 6 mph 13.6 mph 97% 0.08 in 30 W/m2
08:55 63 °F 62.1 °F 30.1 in South 7.6 mph 13.6 mph 97% 0.07 in 43 W/m2
09:00 63 °F 62.1 °F 30.1 in South 7.6 mph 11.4 mph 97% 0.08 in 58 W/m2
09:06 63.1 °F 62.2 °F 30.1 in SSW 6.9 mph 11.4 mph 97% 0.08 in 39 W/m2
09:11 62.8 °F 61.9 °F 30.1 in SW 6.9 mph 10.7 mph 97% 0.11 in 45 W/m2
09:15 63 °F 62.1 °F 30.1 in SSW 5.4 mph 10.7 mph 97% 0.12 in 43 W/m2
09:20 63.1 °F 62.2 °F 30.1 in SSW 6 mph 9.8 mph 97% 0.13 in 57 W/m2
09:25 63 °F 62.1 °F 30.1 in South 6.9 mph 9.8 mph 97% 0.13 in 68 W/m2
09:30 62.6 °F 61.9 °F 30.1 in South 5.4 mph 9.8 mph 97% 0.15 in 68 W/m2
09:35 62.8 °F 61.9 °F 30.1 in SSW 6 mph 9.2 mph 97% 0.17 in 46 W/m2
09:40 62.8 °F 61.9 °F 30.1 in South 3.8 mph 9.2 mph 97% 0.19 in 72 W/m2
09:46 62.8 °F 61.9 °F 30.1 in South 0.7 mph 9.2 mph 97% 0.2 in 68 W/m2
09:50 62.8 °F 61.9 °F 30.1 in South 5.4 mph 7.6 mph 97% 0.21 in 74 W/m2
09:55 62.6 °F 61.9 °F 30.1 in South 3.8 mph 8.3 mph 97% 0.21 in 77 W/m2
10:00 62.6 °F 61.9 °F 30.1 in SSE 0.7 mph 11.4 mph 97% 0.21 in 53 W/m2
10:05 62.6 °F 61.9 °F 30.1 in SSE 1.6 mph 11.4 mph 97% 0.2 in 52 W/m2
10:10 62.6 °F 61.9 °F 30.1 in South 3.1 mph 9.2 mph 97% 0.19 in 70 W/m2
10:15 62.8 °F 61.9 °F 30.1 in SSE 1.6 mph 8.3 mph 97% 0.19 in 92 W/m2
10:20 62.8 °F 61.9 °F 30.1 in South 3.1 mph 8.3 mph 97% 0.18 in 85 W/m2
10:25 62.6 °F 61.9 °F 30.1 in SSE 4.5 mph 8.3 mph 97% 0.19 in 92 W/m2
10:30 62.6 °F 61.9 °F 30.1 in SSE 6 mph 11.4 mph 97% 0.18 in 94 W/m2
10:35 62.2 °F 61.7 °F 30.1 in SSE 6 mph 13.6 mph 98% 0.18 in 72 W/m2
10:40 62.6 °F 61.9 °F 30.1 in South 3.1 mph 13.6 mph 97% 0.18 in 103 W/m2
10:45 62.6 °F 61.9 °F 30.1 in South 3.8 mph 12.1 mph 97% 0.18 in 87 W/m2
10:50 62.6 °F 61.9 °F 30.1 in SSE 3.8 mph 9.8 mph 97% 0.18 in 80 W/m2
10:55 62.8 °F 61.9 °F 30.1 in SSE 3.8 mph 11.4 mph 97% 0.18 in 133 W/m2
11:00 62.8 °F 61.9 °F 30.1 in South 6 mph 11.4 mph 97% 0.19 in 104 W/m2
11:05 62.6 °F 61.9 °F 30.1 in South 9.8 mph 15.9 mph 97% 0.2 in 82 W/m2
11:10 62.4 °F 61.9 °F 30.2 in South 6.9 mph 15.9 mph 98% 0.2 in 100 W/m2
11:15 62.6 °F 61.9 °F 30.2 in South 8.3 mph 13.6 mph 97% 0.22 in 93 W/m2
11:20 62.4 °F 61.9 °F 30.2 in South 7.6 mph 13.6 mph 98% 0.21 in 146 W/m2
11:25 62.4 °F 61.9 °F 30.2 in SSE 6 mph 17.4 mph 98% 0.21 in 94 W/m2
11:30 62.2 °F 61.7 °F 30.2 in SSE 7.6 mph 17.4 mph 98% 0.22 in 125 W/m2
11:35 62.2 °F 61.7 °F 30.2 in South 9.8 mph 16.8 mph 98% 0.21 in 118 W/m2
11:40 62.2 °F 61.7 °F 30.2 in SSE 9.8 mph 17.4 mph 98% 0.22 in 122 W/m2
11:45 61.9 °F 61.3 °F 30.2 in SSE 6 mph 17.4 mph 98% 0.24 in 113 W/m2
11:50 62.1 °F 61.5 °F 30.2 in South 7.6 mph 17.4 mph 98% 0.25 in 103 W/m2
11:55 62.1 °F 61.5 °F 30.2 in South 7.6 mph 15.2 mph 98% 0.26 in 112 W/m2
12:00 61.9 °F 61.3 °F 30.2 in South 7.6 mph 15.2 mph 98% 0.26 in 155 W/m2
12:05 61.7 °F 61.2 °F 30.2 in SSE 7.6 mph 14.5 mph 98% 0.25 in 107 W/m2
12:10 61.9 °F 61.3 °F 30.2 in South 8.3 mph 18.3 mph 98% 0.27 in 94 W/m2
12:15 61.5 °F 61 °F 30.2 in South 9.8 mph 18.3 mph 98% 0.24 in 123 W/m2
12:20 61 °F 60.4 °F 30.2 in South 13 mph 19 mph 98% 0.26 in 93 W/m2
12:25 60.6 °F 60.4 °F 30.2 in South 6.9 mph 22.1 mph 99% 0.26 in 112 W/m2
12:30 60.8 °F 60.3 °F 30.2 in South 11.4 mph 22.8 mph 98% 0.27 in 108 W/m2
12:35 61 °F 60.4 °F 30.2 in South 11.4 mph 22.8 mph 98% 0.26 in 136 W/m2
12:40 60.6 °F 60.4 °F 30.2 in South 10.7 mph 23.5 mph 99% 0.25 in 94 W/m2
12:45 60.6 °F 60.4 °F 30.2 in South 18.3 mph 23.5 mph 99% 0.22 in 109 W/m2
12:50 60.4 °F 60.3 °F 30.2 in South 11.4 mph 22.1 mph 99% 0.2 in 100 W/m2
12:55 60.4 °F 60.3 °F 30.2 in SSE 16.8 mph 22.1 mph 99% 0.19 in 84 W/m2
13:00 60.3 °F 60.1 °F 30.2 in SSE 12.1 mph 23.5 mph 99% 0.18 in 113 W/m2
13:05 60.1 °F 59.7 °F 30.2 in SSE 13 mph 23.5 mph 99% 0.18 in 104 W/m2
13:10 59.7 °F 59.5 °F 30.2 in South 6.9 mph 21.3 mph 99% 0.17 in 51 W/m2
13:15 60.1 °F 59.7 °F 30.2 in South 13.6 mph 21.3 mph 99% 0.15 in 89 W/m2
13:20 59.9 °F 59.5 °F 30.2 in South 18.3 mph 22.1 mph 99% 0.14 in 106 W/m2
13:25 59.7 °F 59.5 °F 30.2 in SSW 12.1 mph 22.1 mph 99% 0.13 in 106 W/m2
13:30 59.7 °F 59.5 °F 30.2 in SSW 14.5 mph 25.1 mph 99% 0.11 in 163 W/m2
13:35 59.7 °F 59.5 °F 30.2 in South 12.1 mph 27.3 mph 99% 0.11 in 119 W/m2
13:40 59.5 °F 59.4 °F 30.2 in South 16.8 mph 27.3 mph 99% 0.11 in 119 W/m2
13:45 59.4 °F 59.2 °F 30.2 in South 11.4 mph 24.4 mph 99% 0.11 in 87 W/m2
13:50 58.8 °F 58.6 °F 30.2 in South 11.4 mph 25.1 mph 99% 0.13 in 66 W/m2
13:55 58.5 °F 58.3 °F 30.2 in South 13 mph 25.9 mph 99% 0.14 in 79 W/m2
14:00 58.1 °F 57.7 °F 30.2 in South 13 mph 25.9 mph 99% 0.14 in 89 W/m2
14:05 58.1 °F 57.7 °F 30.2 in South 10.7 mph 25.9 mph 99% 0.14 in 108 W/m2
14:10 58.5 °F 57.6 °F 30.2 in South 11.4 mph 23.5 mph 97% 0.14 in 114 W/m2
14:15 58.6 °F 57.6 °F 30.2 in South 10.7 mph 23.5 mph 96% 0.15 in 122 W/m2
14:20 58.6 °F 57.6 °F 30.2 in South 12.1 mph 23.5 mph 96% 0.14 in 157 W/m2
14:25 58.6 °F 57.2 °F 30.2 in South 10.7 mph 23.5 mph 95% 0.15 in 167 W/m2
14:30 58.6 °F 57.2 °F 30.2 in South 13 mph 21.3 mph 95% 0.14 in 169 W/m2
14:35 58.8 °F 57.4 °F 30.2 in SSE 8.3 mph 21.3 mph 95% 0.13 in 110 W/m2
14:40 59 °F 57.6 °F 30.2 in SSE 9.2 mph 17.4 mph 95% 0.13 in 135 W/m2
14:45 59.2 °F 58.1 °F 30.2 in SSE 9.8 mph 16.8 mph 96% 0.12 in 85 W/m2
14:50 59.2 °F 58.1 °F 30.2 in South 9.2 mph 18.3 mph 96% 0.11 in 98 W/m2
14:55 59.2 °F 58.3 °F 30.2 in South 13.6 mph 19.7 mph 97% 0.08 in 153 W/m2
15:00 59.4 °F 58.3 °F 30.2 in South 10.7 mph 19.7 mph 96% 0.07 in 152 W/m2
15:05 59.4 °F 57.9 °F 30.2 in South 7.6 mph 19.7 mph 95% 0.06 in 154 W/m2
15:10 59.5 °F 57.7 °F 30.2 in South 9.8 mph 22.1 mph 94% 0.05 in 132 W/m2
15:15 59.5 °F 57.6 °F 30.2 in South 8.3 mph 22.1 mph 93% 0.04 in 139 W/m2
15:20 59.4 °F 57.6 °F 30.2 in South 15.9 mph 20.6 mph 94% 0.05 in 134 W/m2
15:25 59 °F 57.9 °F 30.2 in South 15.2 mph 25.1 mph 96% 0.04 in 174 W/m2
15:30 59.2 °F 58.3 °F 30.2 in South 13 mph 25.1 mph 97% 0.05 in 131 W/m2
15:35 58.5 °F 58.3 °F 30.2 in South 12.1 mph 22.8 mph 99% 0.05 in 223 W/m2
15:40 59 °F 58.5 °F 30.2 in South 8.3 mph 22.8 mph 98% 0.05 in 115 W/m2
15:45 58.3 °F 57.9 °F 30.2 in South 8.3 mph 17.4 mph 99% 0.05 in 110 W/m2
15:50 58.3 °F 57.9 °F 30.2 in South 9.8 mph 16.8 mph 99% 0.04 in 115 W/m2
15:55 58.5 °F 57.9 °F 30.2 in South 8.3 mph 16.8 mph 98% 0.04 in 125 W/m2
16:00 59.4 °F 58.5 °F 30.2 in South 13.6 mph 19 mph 97% 0.04 in 114 W/m2
16:05 58.5 °F 57.9 °F 30.2 in South 15.2 mph 22.8 mph 98% 0.04 in 141 W/m2
16:10 57.7 °F 57.2 °F 30.2 in South 13.6 mph 22.8 mph 98% 0.04 in 71 W/m2
16:15 57.7 °F 57.2 °F 30.2 in South 11.4 mph 22.1 mph 98% 0.04 in 112 W/m2
16:20 58.1 °F 57.7 °F 30.2 in South 12.1 mph 20.6 mph 99% 0.04 in 118 W/m2
16:25 57.7 °F 57.2 °F 30.2 in South 13 mph 20.6 mph 98% 0.04 in 70 W/m2
16:30 58.6 °F 57.7 °F 30.2 in South 9.2 mph 20.6 mph 97% 0.02 in 56 W/m2
16:35 58.5 °F 57 °F 30.2 in South 9.2 mph 21.3 mph 95% 0.02 in 66 W/m2
16:40 58.6 °F 57.6 °F 30.2 in South 12.1 mph 21.3 mph 96% 0.01 in 87 W/m2
16:45 58.8 °F 57.7 °F 30.2 in South 9.2 mph 17.4 mph 96% 0.01 in 48 W/m2
16:50 59.2 °F 57.6 °F 30.2 in South 7.6 mph 17.4 mph 94% 0.01 in 35 W/m2
16:55 58.8 °F 57.4 °F 30.2 in South 11.4 mph 17.4 mph 95% 0.02 in 60 W/m2
17:00 59 °F 57 °F 30.2 in SSW 9.8 mph 18.3 mph 93% 0.02 in 76 W/m2
17:05 59.4 °F 57.4 °F 30.2 in South 9.8 mph 19 mph 93% 0.02 in 29 W/m2
17:10 59.2 °F 57.6 °F 30.2 in SSE 7.6 mph 19 mph 94% 0.04 in 27 W/m2
17:15 58.5 °F 57 °F 30.2 in South 7.6 mph 16.8 mph 95% 0.06 in 34 W/m2
17:20 58.5 °F 57.4 °F 30.2 in South 8.3 mph 16.8 mph 96% 0.09 in 24 W/m2
17:25 58.3 °F 57.4 °F 30.2 in SSE 8.3 mph 15.2 mph 97% 0.11 in 40 W/m2
17:30 58.5 °F 57.6 °F 30.2 in South 8.3 mph 18.3 mph 97% 0.12 in 54 W/m2
17:35 58.3 °F 57.4 °F 30.2 in South 13 mph 20.6 mph 97% 0.12 in 63 W/m2
17:40 58.3 °F 56.8 °F 30.2 in South 9.2 mph 20.6 mph 95% 0.12 in 62 W/m2
17:45 58.5 °F 57 °F 30.2 in South 8.3 mph 16.8 mph 95% 0.12 in 47 W/m2
17:50 58.6 °F 56.8 °F 30.2 in South 5.4 mph 18.3 mph 94% 0.13 in 35 W/m2
17:55 58.3 °F 56.3 °F 30.3 in SSE 6.9 mph 18.3 mph 93% 0.12 in 29 W/m2
18:00 58.1 °F 55.8 °F 30.2 in SSE 5.4 mph 12.1 mph 92% 0.12 in 26 W/m2
18:05 58.3 °F 56.3 °F 30.2 in SSE 11.4 mph 18.3 mph 93% 0.12 in 47 W/m2
18:10 58.8 °F 56.5 °F 30.2 in SE 11.4 mph 20.6 mph 92% 0.09 in 35 W/m2
18:15 59 °F 55.6 °F 30.2 in SSE 9.8 mph 21.3 mph 88% 0.07 in 38 W/m2
18:20 59 °F 55 °F 30.2 in South 9.8 mph 21.3 mph 87% 0.04 in 29 W/m2
18:25 59.4 °F 54.9 °F 30.2 in South 6 mph 19 mph 85% 0.02 in 34 W/m2
18:30 59.2 °F 55.2 °F 30.2 in South 6.9 mph 14.5 mph 87% 0.01 in 17 W/m2
18:35 59.2 °F 55.2 °F 30.2 in SSE 6 mph 14.5 mph 87% 0.01 in 19 W/m2
18:40 59 °F 54.5 °F 30.2 in SSE 9.2 mph 21.3 mph 85% 0.02 in 10 W/m2
18:45 58.6 °F 54.1 °F 30.2 in SSE 9.2 mph 22.1 mph 85% 0.01 in 12 W/m2
18:50 59 °F 54.5 °F 30.2 in South 6 mph 22.1 mph 85% 0.01 in 19 W/m2
18:55 59.5 °F 54.3 °F 30.2 in South 8.3 mph 15.2 mph 83% 0.01 in 13 W/m2
19:00 60.1 °F 54 °F 30.2 in South 9.8 mph 15.2 mph 80% 0.01 in 18 W/m2
19:05 60.4 °F 53.6 °F 30.2 in South 10.7 mph 19.7 mph 78% 0.01 in 34 W/m2
19:10 60.8 °F 52.5 °F 30.2 in South 9.8 mph 19.7 mph 74% 0.01 in 24 W/m2
19:15 61.2 °F 52.5 °F 30.2 in South 10.7 mph 18.3 mph 73% 0.01 in 24 W/m2
19:20 61.2 °F 52.5 °F 30.2 in South 7.6 mph 18.3 mph 73% 0.01 in 34 W/m2
19:25 61.3 °F 52 °F 30.2 in South 8.3 mph 19.7 mph 71% 0.01 in 23 W/m2
19:30 61.5 °F 52.9 °F 30.2 in South 10.7 mph 19.7 mph 73% 0.01 in 13 W/m2
19:35 61.5 °F 52 °F 30.3 in South 9.2 mph 16.8 mph 71% 0.01 in 8 W/m2
19:40 61.5 °F 51.6 °F 30.3 in South 9.8 mph 17.4 mph 70% 0 in 5 W/m2
19:45 61.5 °F 52 °F 30.2 in South 7.6 mph 17.4 mph 71% 0 in 6 W/m2
19:50 61.5 °F 51.6 °F 30.2 in South 9.8 mph 20.6 mph 70% 0 in 10 W/m2
19:55 61.5 °F 52 °F 30.2 in SSE 9.2 mph 20.6 mph 71% 0 in 6 W/m2
20:00 61.5 °F 51.6 °F 30.2 in SSE 6.9 mph 16.8 mph 70% 0 in 3 W/m2
20:05 61.5 °F 52.3 °F 30.2 in SSE 6 mph 16.8 mph 72% 0 in 2 W/m2
20:10 61.5 °F 51.6 °F 30.3 in South 6.9 mph 17.4 mph 70% 0 in 1 W/m2
20:15 61.5 °F 52 °F 30.3 in South 9.2 mph 17.4 mph 71% 0 in 0 W/m2
20:20 61.5 °F 51.3 °F 30.3 in South 7.6 mph 19.7 mph 69% 0 in 0 W/m2
20:25 61.5 °F 52.3 °F 30.3 in South 6.9 mph 19.7 mph 72% 0 in 0 W/m2
20:30 61.5 °F 52 °F 30.3 in SSE 7.6 mph 15.2 mph 71% 0 in 0 W/m2
20:35 61.2 °F 52.5 °F 30.3 in SSE 6.9 mph 15.9 mph 73% 0 in 0 W/m2
20:36 61.2 °F 52.2 °F 30.3 in SSE 6 mph 15.9 mph 72% 0 in 0 W/m2
20:41 61 °F 52.3 °F 30.3 in SSE 9.2 mph 19.7 mph 73% 0.01 in 0 W/m2
20:46 60.8 °F 52.2 °F 30.3 in SSE 6 mph 19.7 mph 73% 0.01 in 0 W/m2
20:51 60.4 °F 51.1 °F 30.3 in SSE 5.4 mph 15.9 mph 71% 0.01 in 0 W/m2
20:56 60.6 °F 50.7 °F 30.3 in SSE 7.6 mph 18.3 mph 70% 0.01 in 0 W/m2
21:01 60.6 °F 50.7 °F 30.3 in SE 5.4 mph 18.3 mph 70% 0.01 in 0 W/m2
21:06 60.4 °F 50.2 °F 30.3 in SE 3.8 mph 16.8 mph 69% 0.01 in 0 W/m2
21:11 60.6 °F 51.6 °F 30.3 in SSE 5.4 mph 16.8 mph 72% 0.01 in 0 W/m2
21:16 60.6 °F 49.3 °F 30.3 in SE 3.8 mph 15.9 mph 66% 0.01 in 0 W/m2
21:21 60.8 °F 48.9 °F 30.3 in SE 5.4 mph 15.9 mph 65% 0.01 in 0 W/m2
21:26 60.8 °F 50.2 °F 30.3 in SSE 6 mph 13 mph 68% 0.01 in 0 W/m2
21:31 60.8 °F 50.5 °F 30.3 in SSE 5.4 mph 15.2 mph 69% 0.01 in 0 W/m2
21:36 61 °F 50.7 °F 30.3 in South 9.2 mph 15.2 mph 69% 0.01 in 0 W/m2
21:41 61 °F 51.1 °F 30.3 in South 7.6 mph 14.5 mph 70% 0 in 0 W/m2
21:46 61 °F 52 °F 30.3 in SSE 6.9 mph 14.5 mph 72% 0 in 0 W/m2
21:51 61 °F 52 °F 30.3 in SSE 5.4 mph 12.1 mph 72% 0 in 0 W/m2
21:56 60.6 °F 53.8 °F 30.3 in SSE 7.6 mph 14.5 mph 78% 0 in 0 W/m2
22:01 59.7 °F 54.1 °F 30.3 in SE 6 mph 14.5 mph 82% 0 in 0 W/m2
22:06 59 °F 54 °F 30.3 in SE 6 mph 11.4 mph 83% 0 in 0 W/m2
22:11 58.6 °F 53.4 °F 30.3 in ESE 3.8 mph 10.7 mph 83% 0 in 0 W/m2
22:16 58.8 °F 53.1 °F 30.3 in East 3.8 mph 11.4 mph 81% 0 in 0 W/m2
22:21 59 °F 52.2 °F 30.3 in East 6 mph 11.4 mph 78% 0 in 0 W/m2
22:26 59 °F 52.2 °F 30.3 in East 0.7 mph 9.2 mph 78% 0 in 0 W/m2
22:31 59.2 °F 52.7 °F 30.3 in ESE 3.1 mph 9.2 mph 79% 0 in 0 W/m2
22:36 59.5 °F 53.8 °F 30.3 in SE 4.5 mph 7.6 mph 81% 0 in 0 W/m2
22:41 59.7 °F 54.1 °F 30.3 in SE 2.2 mph 8.3 mph 82% 0 in 0 W/m2
22:46 59.7 °F 54.7 °F 30.3 in SSE 1.6 mph 8.3 mph 83% 0 in 0 W/m2
22:51 59.7 °F 52.9 °F 30.3 in SSE 6.9 mph 11.4 mph 78% 0 in 0 W/m2
22:56 60.6 °F 51.6 °F 30.3 in South 6.9 mph 12.1 mph 72% 0 in 0 W/m2
23:01 60.6 °F 51.3 °F 30.3 in South 6 mph 14.5 mph 71% 0 in 0 W/m2
23:06 60.3 °F 53.1 °F 30.3 in SSE 6 mph 14.5 mph 77% 0.06 in 0 W/m2
23:11 58.5 °F 53.8 °F 30.3 in SSE 3.8 mph 14.5 mph 84% 0.06 in 0 W/m2
23:16 58.5 °F 53.8 °F 30.3 in SE 4.5 mph 12.1 mph 84% 0.06 in 0 W/m2
23:21 59 °F 52.9 °F 30.3 in SE 4.5 mph 12.1 mph 80% 0.06 in 0 W/m2
23:26 59.4 °F 52.2 °F 30.3 in East 5.4 mph 13.6 mph 77% 0.06 in 0 W/m2
23:31 59.7 °F 52.2 °F 30.3 in East 6 mph 13.6 mph 76% 0.06 in 0 W/m2
23:36 60.1 °F 52.2 °F 30.3 in SSE 6 mph 12.1 mph 75% 0.06 in 0 W/m2
23:41 60.3 °F 52.3 °F 30.3 in South 6 mph 12.1 mph 75% 0.06 in 0 W/m2
23:58 60.8 °F 51.6 °F 30.3 in SSE 4.5 mph 13 mph 72% 0.06 in 0 W/m2
Northern Hawkes Bay. New Zealand Historic Data
Compliments of Weather Underground - 2.25 mb